KIMT/IMT METAR and TAF weather

Enter ICAO airport designator
Station Type Date Time Source
KIMT METAR 2022/01/26 12:54 UTC NOAA

KIMT 261254Z AUTO 00000KT 10SM CLR M28/M32 A3025 RMK AO2 SLP285 I1000 T12781317


Station Type Date Time Source
KIMT Decoded METAR 2022/01/26 12:54 UTC NOAA

IRON MOUNTAIN FORD AIRPORT, MI, United States (KIMT) 45-49N 88-07W 349M
Jan 26, 2022 - 07:54 AM EST / 2022.01.26 1254 UTC
Wind: Calm:0
Visibility: 10 mile(s):0
Sky conditions: clear
Temperature: -18.0 F (-27.8 C)
Dew Point: -25.1 F (-31.7 C)
Relative Humidity: 69%
Pressure (altimeter): 30.25 in. Hg (1024 hPa)
ob: KIMT 261254Z AUTO 00000KT 10SM CLR M28/M32 A3025 RMK AO2 SLP285 I1000 T12781317
cycle: 13

Station Type Date Time Source
KIMT TAF UTC NOAA

Error!

Example: see airport list